createdAt,value
2018-10-12T00:01:11.297Z,2.83
2018-10-12T00:05:16.587Z,3.50
2018-10-12T00:09:21.725Z,4.50
2018-10-12T00:13:26.383Z,6.03
2018-10-12T00:17:31.080Z,4.33
2018-10-12T00:21:35.751Z,6.37
2018-10-12T00:25:40.468Z,3.63
2018-10-12T00:29:45.290Z,4.30
2018-10-12T00:33:49.951Z,4.17
2018-10-12T00:37:55.663Z,6.17
2018-10-12T00:42:00.312Z,5.40
2018-10-12T00:46:05.195Z,5.10
2018-10-12T00:50:10.348Z,4.23
2018-10-12T00:54:15.921Z,4.33
2018-10-12T00:58:20.570Z,4.73
2018-10-12T01:02:25.239Z,4.60
2018-10-12T01:06:30.134Z,4.83
2018-10-12T01:10:35.051Z,5.50
2018-10-12T01:14:39.848Z,5.63
2018-10-12T01:18:44.601Z,5.03
2018-10-12T01:22:49.254Z,5.23
2018-10-12T01:26:54.000Z,5.70
2018-10-12T01:30:58.637Z,5.03
2018-10-12T01:35:03.312Z,5.03
2018-10-12T01:39:07.975Z,4.40
2018-10-12T01:43:12.925Z,5.00
2018-10-12T01:47:17.745Z,3.43
2018-10-12T01:51:22.411Z,3.53
2018-10-12T01:55:27.066Z,3.63
2018-10-12T01:59:32.312Z,4.33
2018-10-12T02:03:37.035Z,5.07
2018-10-12T02:07:42.305Z,3.40
2018-10-12T02:11:47.291Z,6.33
2018-10-12T02:15:51.977Z,6.00
2018-10-12T02:19:56.712Z,4.87
2018-10-12T02:24:01.736Z,4.37
2018-10-12T02:28:06.413Z,3.70
2018-10-12T02:32:11.197Z,4.23
2018-10-12T02:36:15.999Z,5.23
2018-10-12T02:40:20.664Z,6.50
2018-10-12T02:44:25.337Z,6.03
2018-10-12T02:48:30.007Z,5.47
2018-10-12T02:52:34.685Z,5.87
2018-10-12T02:56:40.175Z,3.87
2018-10-12T03:00:45.108Z,5.33
2018-10-12T03:04:49.927Z,4.93
2018-10-12T03:08:54.588Z,6.10
2018-10-12T03:12:59.279Z,2.97
2018-10-12T03:17:03.938Z,3.50
2018-10-12T03:21:08.794Z,3.83
2018-10-12T03:25:13.561Z,4.83
2018-10-12T03:29:18.343Z,3.63
2018-10-12T03:33:23.064Z,5.23
2018-10-12T03:37:27.827Z,3.27
2018-10-12T03:41:32.558Z,3.97
2018-10-12T03:45:37.224Z,5.20
2018-10-12T03:49:42.085Z,5.03
2018-10-12T03:53:46.838Z,2.20
2018-10-12T03:57:51.494Z,2.90
2018-10-12T04:01:56.283Z,3.73
2018-10-12T04:06:00.922Z,3.53
2018-10-12T04:10:05.595Z,3.73
2018-10-12T04:14:10.612Z,2.77
2018-10-12T04:18:15.313Z,2.53
2018-10-12T04:22:24.630Z,3.47
2018-10-12T04:26:29.473Z,4.47
2018-10-12T04:30:34.167Z,5.27
2018-10-12T04:34:39.179Z,4.57
2018-10-12T04:38:56.331Z,3.60
2018-10-12T04:43:01.579Z,2.27
2018-10-12T04:47:07.210Z,2.43
2018-10-12T04:51:15.610Z,2.93
2018-10-12T04:55:20.368Z,2.80
2018-10-12T04:59:25.261Z,4.27
2018-10-12T05:03:30.003Z,3.37
2018-10-12T05:07:34.731Z,3.70
2018-10-12T05:11:39.821Z,4.57
2018-10-12T05:15:44.559Z,4.77
2018-10-12T05:19:49.719Z,6.17
2018-10-12T05:23:54.404Z,4.33
2018-10-12T05:27:59.180Z,4.60
2018-10-12T05:32:03.803Z,5.40
2018-10-12T05:36:08.671Z,4.30
2018-10-12T05:40:14.237Z,6.87
2018-10-12T05:44:18.932Z,5.93
2018-10-12T05:48:34.878Z,6.83
2018-10-12T05:52:41.528Z,4.87
2018-10-12T05:56:46.336Z,5.80
2018-10-12T06:00:51.292Z,6.73
2018-10-12T06:04:55.975Z,4.80
2018-10-12T06:09:00.643Z,5.60
2018-10-12T06:13:05.768Z,5.40
2018-10-12T06:17:12.079Z,4.77
2018-10-12T06:21:16.792Z,6.73
2018-10-12T06:25:21.563Z,8.00
2018-10-12T06:29:26.364Z,6.63
2018-10-12T06:33:31.020Z,9.10
2018-10-12T06:37:35.968Z,7.63
2018-10-12T06:41:40.767Z,7.57
2018-10-12T06:45:45.662Z,10.67
2018-10-12T06:49:50.433Z,7.73
2018-10-12T06:53:55.136Z,7.37
2018-10-12T06:57:59.807Z,8.67
2018-10-12T07:02:04.560Z,8.67
2018-10-12T07:06:09.822Z,8.87
2018-10-12T07:10:15.088Z,6.90
2018-10-12T07:14:19.757Z,7.20
2018-10-12T07:18:24.547Z,8.30
2018-10-12T07:22:29.219Z,5.92
2018-10-12T07:26:34.023Z,6.57
2018-10-12T07:30:38.720Z,6.93
2018-10-12T07:34:43.623Z,6.53
2018-10-12T07:38:48.665Z,10.17
2018-10-12T07:42:53.511Z,7.53
2018-10-12T07:46:58.158Z,6.27
2018-10-12T07:51:03.099Z,5.83
2018-10-12T07:55:07.838Z,6.73
2018-10-12T08:03:16.160Z,7.80
2018-10-12T08:07:21.011Z,5.73
2018-10-12T08:11:25.667Z,7.50
2018-10-12T08:15:30.392Z,6.00
2018-10-12T08:19:36.188Z,5.33
2018-10-12T08:23:41.052Z,6.07
2018-10-12T08:27:46.324Z,7.33
2018-10-12T08:31:51.204Z,6.97
2018-10-12T08:35:56.100Z,5.23
2018-10-12T08:40:00.999Z,8.43
2018-10-12T08:44:06.025Z,6.00
2018-10-12T08:48:11.678Z,6.67
2018-10-12T08:52:17.228Z,6.50
2018-10-12T08:56:22.062Z,7.70
2018-10-12T09:00:26.849Z,7.57
2018-10-12T09:04:31.495Z,6.27
2018-10-12T09:08:36.281Z,8.90
2018-10-12T09:12:41.553Z,7.67
2018-10-12T09:16:46.307Z,8.23
2018-10-12T09:20:51.062Z,6.97
2018-10-12T09:24:55.938Z,8.30
2018-10-12T09:29:00.570Z,6.50
2018-10-12T09:33:05.366Z,8.13
2018-10-12T09:37:10.469Z,10.23
2018-10-12T09:41:15.190Z,7.53
2018-10-12T09:45:19.819Z,7.30
2018-10-12T09:49:24.555Z,6.87
2018-10-12T09:53:29.224Z,8.20
2018-10-12T09:57:35.517Z,7.67
2018-10-12T10:01:45.808Z,7.93
2018-10-12T10:05:50.827Z,6.87
2018-10-12T10:09:55.675Z,7.43
2018-10-12T10:14:00.670Z,6.77
2018-10-12T10:18:06.744Z,5.93
2018-10-12T10:22:12.703Z,8.80
2018-10-12T10:26:17.596Z,8.07
2018-10-12T10:30:22.237Z,9.37
2018-10-12T10:34:26.934Z,6.00
2018-10-12T10:38:31.615Z,7.23
2018-10-12T10:42:36.347Z,6.10
2018-10-12T10:46:41.793Z,6.40
2018-10-12T10:50:46.515Z,9.03
2018-10-12T10:54:51.466Z,8.13
2018-10-12T10:58:56.267Z,7.33
2018-10-12T11:03:01.090Z,8.33
2018-10-12T11:07:05.732Z,5.43
2018-10-12T11:11:12.415Z,6.13
2018-10-12T11:15:17.520Z,5.03
2018-10-12T11:19:22.213Z,5.67
2018-10-12T11:23:27.084Z,4.70
2018-10-12T11:27:31.740Z,6.23
2018-10-12T11:31:36.461Z,7.40
2018-10-12T11:35:42.078Z,7.27
2018-10-12T11:39:47.022Z,5.20
2018-10-12T11:43:51.668Z,6.77
2018-10-12T11:47:56.304Z,4.63
2018-10-12T11:52:01.429Z,6.87
2018-10-12T11:56:06.196Z,5.73
2018-10-12T12:00:11.352Z,4.27
2018-10-12T12:04:16.621Z,4.43
2018-10-12T12:08:21.331Z,7.67
2018-10-12T12:12:26.124Z,8.87
2018-10-12T12:16:31.120Z,3.83
2018-10-12T12:20:36.460Z,4.10
2018-10-12T12:24:42.491Z,3.10
2018-10-12T12:28:47.246Z,4.40
2018-10-12T12:32:52.278Z,3.23
2018-10-12T12:36:56.942Z,4.23
2018-10-12T12:41:01.585Z,2.93
2018-10-12T12:45:08.375Z,7.80
2018-10-12T12:49:13.400Z,8.63
2018-10-12T12:53:18.078Z,6.30
2018-10-12T12:57:22.720Z,4.40
2018-10-12T13:01:27.508Z,7.43
2018-10-12T13:05:32.381Z,6.43
2018-10-12T13:09:37.204Z,6.07
2018-10-12T13:13:42.977Z,6.97
2018-10-12T13:17:48.026Z,7.07
2018-10-12T13:21:52.723Z,4.90
2018-10-12T13:25:57.468Z,5.60
2018-10-12T13:34:30.108Z,3.00
2018-10-12T13:38:34.806Z,4.10
2018-10-12T13:42:40.084Z,4.67
2018-10-12T13:46:45.569Z,2.10
2018-10-12T13:50:50.683Z,5.53
2018-10-12T13:54:55.342Z,5.50
2018-10-12T13:59:00.095Z,5.17
2018-10-12T14:03:04.920Z,4.93
2018-10-12T14:07:09.699Z,4.00
2018-10-12T14:11:14.522Z,3.20
2018-10-12T14:15:19.437Z,2.63
2018-10-12T14:19:24.242Z,3.70
2018-10-12T14:23:28.883Z,4.77
2018-10-12T14:27:33.602Z,6.83
2018-10-12T14:31:38.365Z,4.73
2018-10-12T14:35:44.254Z,5.97
2018-10-12T14:39:49.376Z,4.93
2018-10-12T14:43:54.105Z,3.27
2018-10-12T14:47:58.741Z,2.80
2018-10-12T14:52:03.733Z,6.03
2018-10-12T14:56:08.409Z,4.37
2018-10-12T15:00:14.364Z,4.00
2018-10-12T15:04:19.201Z,5.77
2018-10-12T15:08:23.823Z,4.40
2018-10-12T15:12:28.491Z,4.43
2018-10-12T15:16:33.193Z,4.23
2018-10-12T15:20:37.919Z,4.30
2018-10-12T15:24:42.797Z,5.53
2018-10-12T15:32:56.938Z,7.07
2018-10-12T15:37:01.683Z,6.13
2018-10-12T15:41:06.456Z,8.57
2018-10-12T15:45:12.060Z,4.10
2018-10-12T15:49:16.949Z,5.20
2018-10-12T15:53:21.599Z,5.07
2018-10-12T15:57:27.465Z,5.63
2018-10-12T16:01:32.535Z,5.43
2018-10-12T16:05:37.228Z,4.27
2018-10-12T16:09:43.055Z,4.77
2018-10-12T16:13:48.033Z,6.13
2018-10-12T16:17:52.862Z,4.30
2018-10-12T16:21:57.581Z,5.93
2018-10-12T16:26:17.165Z,6.30
2018-10-12T16:30:21.862Z,6.63
2018-10-12T16:34:26.533Z,7.83
2018-10-12T16:38:31.585Z,6.03
2018-10-12T16:42:36.241Z,5.73
2018-10-12T16:46:41.171Z,5.73
2018-10-12T16:50:45.925Z,6.67
2018-10-12T16:54:51.053Z,7.07
2018-10-12T16:58:55.697Z,5.13
2018-10-12T17:03:00.392Z,10.10
2018-10-12T17:07:05.217Z,8.37
2018-10-12T17:11:10.617Z,5.67
2018-10-12T17:15:15.386Z,9.17
2018-10-12T17:19:20.094Z,7.90
2018-10-12T17:23:24.762Z,10.67
2018-10-12T17:27:29.485Z,16.17
2018-10-12T17:31:35.216Z,6.97
2018-10-12T17:35:40.504Z,9.83
2018-10-12T17:39:46.468Z,8.73
2018-10-12T17:43:51.423Z,8.93
2018-10-12T17:47:56.653Z,6.87
2018-10-12T17:52:01.464Z,9.37
2018-10-12T17:56:06.410Z,8.70
2018-10-12T18:00:11.643Z,10.47
2018-10-12T18:04:16.420Z,8.53
2018-10-12T18:08:21.162Z,10.67
2018-10-12T18:12:28.026Z,7.93
2018-10-12T18:16:32.820Z,8.50
2018-10-12T18:20:37.503Z,9.03
2018-10-12T18:24:42.669Z,8.67
2018-10-12T18:28:47.773Z,7.73
2018-10-12T18:32:52.464Z,5.93
2018-10-12T18:36:57.235Z,7.97
2018-10-12T18:41:01.966Z,6.47
2018-10-12T18:45:06.640Z,7.60
2018-10-12T18:49:11.645Z,10.53
2018-10-12T18:53:16.570Z,6.63
2018-10-12T18:57:21.247Z,8.73
2018-10-12T19:01:25.980Z,7.60
2018-10-12T19:05:30.668Z,8.33
2018-10-12T19:09:35.335Z,6.23
2018-10-12T19:13:40.137Z,8.60
2018-10-12T19:17:45.025Z,10.00
2018-10-12T19:21:49.795Z,9.13
2018-10-12T19:25:54.475Z,9.67
2018-10-12T19:29:59.223Z,9.13
2018-10-12T19:34:03.875Z,9.67
2018-10-12T19:38:08.841Z,8.60
2018-10-12T19:42:14.115Z,9.43
2018-10-12T19:46:18.790Z,8.37
2018-10-12T19:50:23.461Z,6.60
2018-10-12T19:54:28.188Z,9.23
2018-10-12T19:58:33.161Z,10.30
2018-10-12T20:02:37.837Z,6.07
2018-10-12T20:06:42.703Z,7.90
2018-10-12T20:10:47.847Z,6.70
2018-10-12T20:14:52.539Z,10.10
2018-10-12T20:18:57.212Z,10.13
2018-10-12T20:23:02.080Z,7.40
2018-10-12T20:27:06.746Z,7.93
2018-10-12T20:31:11.753Z,9.83
2018-10-12T20:35:16.689Z,9.10
2018-10-12T20:39:21.507Z,6.57
2018-10-12T20:43:26.143Z,8.00
2018-10-12T20:47:30.835Z,8.23
2018-10-12T20:51:35.625Z,10.33
2018-10-12T20:55:40.407Z,7.47
2018-10-12T20:59:45.104Z,8.40
2018-10-12T21:03:49.805Z,9.70
2018-10-12T21:07:54.447Z,8.57
2018-10-12T21:11:59.117Z,7.07
2018-10-12T21:16:03.807Z,6.70
2018-10-12T21:20:08.481Z,8.70
2018-10-12T21:24:13.425Z,9.60
2018-10-12T21:28:18.175Z,6.47
2018-10-12T21:32:22.847Z,8.13
2018-10-12T21:36:27.559Z,11.60
2018-10-12T21:40:32.292Z,9.77
2018-10-12T21:44:36.943Z,6.47
2018-10-12T21:48:41.827Z,10.43
2018-10-12T21:52:46.642Z,9.67
2018-10-12T21:56:51.282Z,5.83
2018-10-12T22:01:01.309Z,8.00
2018-10-12T22:05:05.963Z,7.47
2018-10-12T22:09:11.097Z,9.37
2018-10-12T22:13:16.220Z,7.70
2018-10-12T22:17:21.175Z,6.70
2018-10-12T22:21:25.913Z,9.00
2018-10-12T22:25:30.610Z,8.70
2018-10-12T22:29:35.257Z,6.17
2018-10-12T22:33:39.948Z,6.27
2018-10-12T22:37:44.732Z,6.87
2018-10-12T22:41:49.535Z,8.40
2018-10-12T22:45:54.173Z,8.80
2018-10-12T22:49:58.836Z,9.20
2018-10-12T22:54:03.556Z,8.20
2018-10-12T22:58:08.206Z,6.23
2018-10-12T23:02:13.042Z,6.50
2018-10-12T23:06:18.108Z,8.30
2018-10-12T23:10:23.405Z,6.73
2018-10-12T23:14:28.048Z,6.57
2018-10-12T23:18:32.982Z,7.43
2018-10-12T23:22:37.655Z,8.97
2018-10-12T23:26:42.460Z,7.77
2018-10-12T23:30:47.229Z,7.27
2018-10-12T23:34:51.863Z,7.00
2018-10-12T23:38:56.626Z,6.43
2018-10-12T23:43:01.368Z,8.50
2018-10-12T23:47:06.193Z,12.70
2018-10-12T23:51:11.067Z,6.47
2018-10-12T23:55:15.908Z,6.40
2018-10-12T23:59:20.607Z,7.83
